createdAt,value
2019-06-15T00:00:55.902Z,15.40
2019-06-15T00:03:25.514Z,15.40
2019-06-15T00:05:55.156Z,15.30
2019-06-15T00:08:24.767Z,15.30
2019-06-15T00:10:54.369Z,15.30
2019-06-15T00:13:25.583Z,15.30
2019-06-15T00:15:55.237Z,15.30
2019-06-15T00:18:24.888Z,15.30
2019-06-15T00:20:54.473Z,15.30
2019-06-15T00:23:24.056Z,15.30
2019-06-15T00:25:53.722Z,15.30
2019-06-15T00:28:24.448Z,15.40
2019-06-15T00:30:55.121Z,15.30
2019-06-15T00:33:24.720Z,15.30
2019-06-15T00:35:54.319Z,15.30
2019-06-15T00:38:23.920Z,15.30
2019-06-15T00:40:53.432Z,15.20
2019-06-15T00:43:22.964Z,15.20
2019-06-15T00:45:52.694Z,15.20
2019-06-15T00:48:23.268Z,15.20
2019-06-15T00:50:53.072Z,15.20
2019-06-15T00:53:22.712Z,15.20
2019-06-15T00:55:52.395Z,15.20
2019-06-15T00:58:22.040Z,15.20
2019-06-15T01:00:51.741Z,15.20
2019-06-15T01:03:21.276Z,15.20
2019-06-15T01:05:50.847Z,15.20
2019-06-15T01:08:20.417Z,15.20
2019-06-15T01:10:50.073Z,15.20
2019-06-15T01:13:19.697Z,15.20
2019-06-15T01:15:49.285Z,15.20
2019-06-15T01:18:18.963Z,15.10
2019-06-15T01:20:48.610Z,15.10
2019-06-15T01:23:19.286Z,15.10
2019-06-15T01:25:48.881Z,15.10
2019-06-15T01:28:18.602Z,15.10
2019-06-15T01:30:48.600Z,15.10
2019-06-15T01:33:18.317Z,15.10
2019-06-15T01:35:48.032Z,15.10
2019-06-15T01:38:17.621Z,15.10
2019-06-15T01:40:47.291Z,15.00
2019-06-15T01:43:16.876Z,15.00
2019-06-15T01:45:46.519Z,15.00
2019-06-15T01:48:16.150Z,15.00
2019-06-15T01:50:45.725Z,15.10
2019-06-15T01:53:15.311Z,15.10
2019-06-15T01:55:45.056Z,15.10
2019-06-15T01:58:14.643Z,15.10
2019-06-15T02:00:45.315Z,15.10
2019-06-15T02:03:14.976Z,15.10
2019-06-15T02:05:44.633Z,15.10
2019-06-15T02:08:14.288Z,15.10
2019-06-15T02:10:43.957Z,15.10
2019-06-15T02:13:13.540Z,15.10
2019-06-15T02:15:43.138Z,15.10
2019-06-15T02:18:12.872Z,15.10
2019-06-15T02:20:42.448Z,15.00
2019-06-15T02:23:12.234Z,15.00
2019-06-15T02:25:41.831Z,15.00
2019-06-15T02:28:11.450Z,14.90
2019-06-15T02:30:41.014Z,14.90
2019-06-15T02:33:10.600Z,14.90
2019-06-15T02:35:40.291Z,14.80
2019-06-15T02:38:09.875Z,14.80
2019-06-15T02:40:39.580Z,14.80
2019-06-15T02:43:09.214Z,14.70
2019-06-15T02:45:38.796Z,14.80
2019-06-15T02:48:09.508Z,14.80
2019-06-15T02:50:39.286Z,14.80
2019-06-15T02:53:08.810Z,14.80
2019-06-15T02:55:49.738Z,14.80
2019-06-15T02:58:09.601Z,14.80
2019-06-15T03:00:45.192Z,14.80
2019-06-15T03:03:14.879Z,14.80
2019-06-15T03:05:44.662Z,14.80
2019-06-15T03:08:14.267Z,14.80
2019-06-15T03:10:44.222Z,14.80
2019-06-15T03:13:14.207Z,14.80
2019-06-15T03:15:44.152Z,14.90
2019-06-15T03:18:13.745Z,14.90
2019-06-15T03:20:43.858Z,15.00
2019-06-15T03:23:13.509Z,15.00
2019-06-15T03:25:43.089Z,15.10
2019-06-15T03:28:12.801Z,15.20
2019-06-15T03:30:42.953Z,15.30
2019-06-15T03:33:12.560Z,15.30
2019-06-15T03:35:42.131Z,15.40
2019-06-15T03:38:11.706Z,15.50
2019-06-15T03:40:42.616Z,15.50
2019-06-15T03:43:12.201Z,15.60
2019-06-15T03:45:41.804Z,15.70
2019-06-15T03:48:11.372Z,15.70
2019-06-15T03:50:40.978Z,15.80
2019-06-15T03:53:10.642Z,15.90
2019-06-15T03:55:40.945Z,16.00
2019-06-15T03:58:10.629Z,16.10
2019-06-15T04:00:45.879Z,16.10
2019-06-15T04:03:15.765Z,16.20
2019-06-15T04:05:45.426Z,16.30
2019-06-15T04:08:15.060Z,16.40
2019-06-15T04:10:44.664Z,16.40
2019-06-15T04:13:14.244Z,16.50
2019-06-15T04:15:43.896Z,16.50
2019-06-15T04:18:13.484Z,16.60
2019-06-15T04:20:43.084Z,16.70
2019-06-15T04:23:12.647Z,16.80
2019-06-15T04:25:44.221Z,16.80
2019-06-15T04:28:13.586Z,16.90
2019-06-15T04:30:43.346Z,16.90
2019-06-15T04:33:12.883Z,17.00
2019-06-15T04:35:42.467Z,17.00
2019-06-15T04:38:12.091Z,17.10
2019-06-15T04:40:41.658Z,17.10
2019-06-15T04:43:11.230Z,17.20
2019-06-15T04:45:40.906Z,17.20
2019-06-15T04:48:10.634Z,17.30
2019-06-15T04:50:40.394Z,17.30
2019-06-15T04:53:10.041Z,17.40
2019-06-15T04:55:39.753Z,17.40
2019-06-15T04:58:09.389Z,17.40
2019-06-15T05:00:38.961Z,17.40
2019-06-15T05:03:08.639Z,17.40
2019-06-15T05:05:38.233Z,17.50
2019-06-15T05:08:07.842Z,17.60
2019-06-15T05:10:37.365Z,17.70
2019-06-15T05:13:06.943Z,17.70
2019-06-15T05:15:37.093Z,17.80
2019-06-15T05:18:06.678Z,17.90
2019-06-15T05:20:36.315Z,17.90
2019-06-15T05:23:05.956Z,17.90
2019-06-15T05:25:35.571Z,18.00
2019-06-15T05:28:05.480Z,18.10
2019-06-15T05:30:35.191Z,18.20
2019-06-15T05:33:05.005Z,18.30
2019-06-15T05:35:34.658Z,18.40
2019-06-15T05:38:04.309Z,18.40
2019-06-15T05:40:34.973Z,18.40
2019-06-15T05:43:04.713Z,18.50
2019-06-15T05:45:34.304Z,18.50
2019-06-15T05:48:03.925Z,18.50
2019-06-15T05:50:33.525Z,18.60
2019-06-15T05:53:03.290Z,18.70
2019-06-15T05:55:32.923Z,18.80
2019-06-15T05:58:02.505Z,18.90
2019-06-15T06:00:32.161Z,18.90
2019-06-15T06:03:01.812Z,19.00
2019-06-15T06:05:31.414Z,19.10
2019-06-15T06:08:01.007Z,19.20
2019-06-15T06:10:30.618Z,19.30
2019-06-15T06:13:00.214Z,19.40
2019-06-15T06:15:29.812Z,19.50
2019-06-15T06:17:59.450Z,19.60
2019-06-15T06:20:29.023Z,19.70
2019-06-15T06:22:58.773Z,19.80
2019-06-15T06:25:28.371Z,19.80
2019-06-15T06:27:57.938Z,19.90
2019-06-15T06:30:30.367Z,20.00
2019-06-15T06:32:58.767Z,20.10
2019-06-15T06:35:28.467Z,20.20
2019-06-15T06:37:58.011Z,20.30
2019-06-15T06:40:27.607Z,20.40
2019-06-15T06:42:57.261Z,20.50
2019-06-15T06:45:26.929Z,20.60
2019-06-15T06:47:56.536Z,20.70
2019-06-15T06:50:26.244Z,20.70
2019-06-15T06:52:55.883Z,20.80
2019-06-15T06:55:25.457Z,20.90
2019-06-15T06:57:57.284Z,21.00
2019-06-15T07:00:26.368Z,21.10
2019-06-15T07:02:55.903Z,21.20
2019-06-15T07:05:25.498Z,21.30
2019-06-15T07:07:55.263Z,21.40
2019-06-15T07:10:24.868Z,21.60
2019-06-15T07:12:54.590Z,21.70
2019-06-15T07:15:24.159Z,21.80
2019-06-15T07:17:53.733Z,21.90
2019-06-15T07:20:24.396Z,22.00
2019-06-15T07:22:54.018Z,22.10
2019-06-15T07:25:23.737Z,22.20
2019-06-15T07:28:07.109Z,22.30
2019-06-15T07:30:25.790Z,22.50
2019-06-15T07:32:55.387Z,22.60
2019-06-15T07:35:25.127Z,22.80
2019-06-15T07:37:54.780Z,22.90
2019-06-15T07:40:24.376Z,23.00
2019-06-15T07:42:53.972Z,23.20
2019-06-15T07:45:23.635Z,23.30
2019-06-15T07:47:53.343Z,23.30
2019-06-15T07:50:22.936Z,23.40
2019-06-15T07:52:52.578Z,23.50
2019-06-15T07:55:22.217Z,23.70
2019-06-15T07:57:51.882Z,23.80
2019-06-15T08:00:21.997Z,23.90
2019-06-15T08:02:51.652Z,24.10
2019-06-15T08:05:21.276Z,24.10
2019-06-15T08:07:50.978Z,24.30
2019-06-15T08:10:20.554Z,24.40
2019-06-15T08:12:50.208Z,24.50
2019-06-15T08:15:19.892Z,24.60
2019-06-15T08:17:49.509Z,24.70
2019-06-15T08:20:22.016Z,24.80
2019-06-15T08:22:51.582Z,24.90
2019-06-15T08:25:21.165Z,25.00
2019-06-15T08:27:50.837Z,25.10
2019-06-15T08:30:23.449Z,25.10
2019-06-15T08:32:53.034Z,25.20
2019-06-15T08:35:22.767Z,25.20
2019-06-15T08:37:52.407Z,25.20
2019-06-15T08:40:22.000Z,25.20
2019-06-15T08:42:51.542Z,25.30
2019-06-15T08:45:21.148Z,25.40
2019-06-15T08:47:50.751Z,25.60
2019-06-15T08:50:20.383Z,25.70
2019-06-15T08:52:49.976Z,25.90
2019-06-15T08:55:19.560Z,26.00
2019-06-15T08:57:49.139Z,26.20
2019-06-15T09:00:19.110Z,26.40
2019-06-15T09:02:48.709Z,26.50
2019-06-15T09:05:18.411Z,26.60
2019-06-15T09:07:48.061Z,26.70
2019-06-15T09:10:17.966Z,26.80
2019-06-15T09:12:47.593Z,26.90
2019-06-15T09:15:39.018Z,26.90
2019-06-15T09:18:09.613Z,27.10
2019-06-15T09:20:39.207Z,27.10
2019-06-15T09:23:08.774Z,27.10
2019-06-15T09:25:38.422Z,27.20
2019-06-15T09:28:08.137Z,27.30
2019-06-15T09:30:37.980Z,27.40
2019-06-15T09:33:07.571Z,27.40
2019-06-15T09:35:37.229Z,27.40
2019-06-15T09:38:07.377Z,27.40
2019-06-15T09:40:37.025Z,27.30
2019-06-15T09:43:06.582Z,27.20
2019-06-15T09:45:36.241Z,27.20
2019-06-15T09:48:06.027Z,27.10
2019-06-15T09:50:35.768Z,26.90
2019-06-15T09:53:05.371Z,26.80
2019-06-15T09:55:34.948Z,26.60
2019-06-15T09:58:04.558Z,26.60
2019-06-15T10:00:35.117Z,26.50
2019-06-15T10:03:05.207Z,26.40
2019-06-15T10:05:34.935Z,26.40
2019-06-15T10:08:04.511Z,26.40
2019-06-15T10:10:34.210Z,26.40
2019-06-15T10:13:03.880Z,26.50
2019-06-15T10:15:33.564Z,26.60
2019-06-15T10:18:03.295Z,26.70
2019-06-15T10:20:32.974Z,27.00
2019-06-15T10:23:02.639Z,27.20
2019-06-15T10:25:32.249Z,27.40
2019-06-15T10:28:01.831Z,27.60
2019-06-15T10:30:31.431Z,27.90
2019-06-15T10:33:01.090Z,28.10
2019-06-15T10:35:30.796Z,28.30
2019-06-15T10:38:00.584Z,28.40
2019-06-15T10:40:30.232Z,28.40
2019-06-15T10:42:59.840Z,28.40
2019-06-15T10:45:29.412Z,28.40
2019-06-15T10:47:59.001Z,28.40
2019-06-15T10:50:28.672Z,28.40
2019-06-15T10:52:58.292Z,28.50
2019-06-15T10:55:27.905Z,28.60
2019-06-15T10:57:57.623Z,28.70
2019-06-15T11:00:27.320Z,28.80
2019-06-15T11:02:56.897Z,29.00
2019-06-15T11:05:26.550Z,29.10
2019-06-15T11:07:56.156Z,29.30
2019-06-15T11:10:37.646Z,29.50
2019-06-15T11:13:08.294Z,29.60
2019-06-15T11:15:39.064Z,29.80
2019-06-15T11:18:09.115Z,29.90
2019-06-15T11:20:38.729Z,30.10
2019-06-15T11:23:08.385Z,29.90
2019-06-15T11:25:38.018Z,29.90
2019-06-15T11:28:07.597Z,29.90
2019-06-15T11:30:37.206Z,29.90
2019-06-15T11:33:06.858Z,29.90
2019-06-15T11:35:36.486Z,29.90
2019-06-15T11:38:06.191Z,29.90
2019-06-15T11:40:35.850Z,29.90
2019-06-15T11:43:05.474Z,29.90
2019-06-15T11:45:35.066Z,29.80
2019-06-15T11:48:04.749Z,29.80
2019-06-15T11:50:34.367Z,29.80
2019-06-15T11:53:03.954Z,29.80
2019-06-15T11:55:39.501Z,29.80
2019-06-15T11:58:04.796Z,29.80
2019-06-15T12:00:38.486Z,29.90
2019-06-15T12:03:08.155Z,30.10
2019-06-15T12:05:37.847Z,30.20
2019-06-15T12:08:07.448Z,30.20
2019-06-15T12:10:37.036Z,30.30
2019-06-15T12:13:06.642Z,30.40
2019-06-15T12:15:36.410Z,30.50
2019-06-15T12:18:05.980Z,30.60
2019-06-15T12:20:38.809Z,30.50
2019-06-15T12:23:06.701Z,30.50
2019-06-15T12:25:36.388Z,30.40
2019-06-15T12:28:05.962Z,30.50
2019-06-15T12:30:46.559Z,30.60
2019-06-15T12:33:11.500Z,30.80
2019-06-15T12:35:41.106Z,30.80
2019-06-15T12:38:10.865Z,30.80
2019-06-15T12:40:40.402Z,30.80
2019-06-15T12:43:10.090Z,30.70
2019-06-15T12:45:40.404Z,30.70
2019-06-15T12:48:10.100Z,30.60
2019-06-15T12:50:39.695Z,30.60
2019-06-15T12:53:10.410Z,30.70
2019-06-15T12:55:39.911Z,30.80
2019-06-15T12:58:09.510Z,31.00
2019-06-15T13:00:40.078Z,31.20
2019-06-15T13:03:09.711Z,31.10
2019-06-15T13:05:39.329Z,30.90
2019-06-15T13:08:08.958Z,30.80
2019-06-15T13:10:38.866Z,30.70
2019-06-15T13:13:08.590Z,30.80
2019-06-15T13:15:38.172Z,30.90
2019-06-15T13:18:07.783Z,31.00
2019-06-15T13:20:37.347Z,31.20
2019-06-15T13:23:06.953Z,31.50
2019-06-15T13:25:36.538Z,31.70
2019-06-15T13:28:06.177Z,31.90
2019-06-15T13:30:35.807Z,32.00
2019-06-15T13:33:05.461Z,32.00
2019-06-15T13:35:35.046Z,31.70
2019-06-15T13:38:04.628Z,31.30
2019-06-15T13:40:34.231Z,31.00
2019-06-15T13:43:03.774Z,30.90
2019-06-15T13:45:33.412Z,31.00
2019-06-15T13:48:03.173Z,31.10
2019-06-15T13:50:32.773Z,31.20
2019-06-15T13:53:02.387Z,31.30
2019-06-15T13:55:31.969Z,31.30
2019-06-15T13:58:02.640Z,31.30
2019-06-15T14:00:32.214Z,30.90
2019-06-15T14:03:01.852Z,30.80
2019-06-15T14:05:31.515Z,30.80
2019-06-15T14:08:01.189Z,30.80
2019-06-15T14:10:30.853Z,31.00
2019-06-15T14:13:00.350Z,31.20
2019-06-15T14:15:30.034Z,31.30
2019-06-15T14:17:59.673Z,31.40
2019-06-15T14:20:29.431Z,31.20
2019-06-15T14:22:59.118Z,31.00
2019-06-15T14:25:28.741Z,30.90
2019-06-15T14:27:58.606Z,30.90
2019-06-15T14:30:28.328Z,30.70
2019-06-15T14:32:58.116Z,30.60
2019-06-15T14:35:27.887Z,30.60
2019-06-15T14:37:57.454Z,30.70
2019-06-15T14:40:27.139Z,30.80
2019-06-15T14:42:56.857Z,30.90
2019-06-15T14:45:28.181Z,31.10
2019-06-15T14:47:57.847Z,31.10
2019-06-15T14:50:27.518Z,31.20
2019-06-15T14:52:57.117Z,31.10
2019-06-15T14:55:26.696Z,31.00
2019-06-15T14:57:56.327Z,30.80
2019-06-15T15:00:26.017Z,30.60
2019-06-15T15:02:56.052Z,30.50
2019-06-15T15:05:28.689Z,30.40
2019-06-15T15:08:01.981Z,30.40
2019-06-15T15:10:31.589Z,30.20
2019-06-15T15:13:01.174Z,30.10
2019-06-15T15:15:30.943Z,30.10
2019-06-15T15:18:00.599Z,30.10
2019-06-15T15:20:30.268Z,30.10
2019-06-15T15:23:19.118Z,30.10
2019-06-15T15:25:48.705Z,30.00
2019-06-15T15:28:18.444Z,29.90
2019-06-15T15:30:48.024Z,29.70
2019-06-15T15:33:17.623Z,29.40
2019-06-15T15:35:47.198Z,29.40
2019-06-15T15:38:16.852Z,29.30
2019-06-15T15:40:47.913Z,29.20
2019-06-15T15:43:17.482Z,28.70
2019-06-15T15:45:47.080Z,28.60
2019-06-15T15:48:20.034Z,28.30
2019-06-15T15:50:47.874Z,27.90
2019-06-15T15:53:17.495Z,27.70
2019-06-15T15:55:47.081Z,27.20
2019-06-15T15:58:16.900Z,27.10
2019-06-15T16:00:47.066Z,26.70
2019-06-15T16:03:17.782Z,26.80
2019-06-15T16:05:47.390Z,26.70
2019-06-15T16:08:16.952Z,26.50
2019-06-15T16:10:46.657Z,26.30
2019-06-15T16:13:16.689Z,26.30
2019-06-15T16:15:46.354Z,26.20
2019-06-15T16:18:17.342Z,26.00
2019-06-15T16:20:47.225Z,26.00
2019-06-15T16:23:16.800Z,26.00
2019-06-15T16:25:46.555Z,26.10
2019-06-15T16:28:16.147Z,26.10
2019-06-15T16:31:04.848Z,26.10
2019-06-15T16:33:17.071Z,26.00
2019-06-15T16:35:46.885Z,26.00
2019-06-15T16:38:19.353Z,26.00
2019-06-15T16:40:47.866Z,25.90
2019-06-15T16:43:17.720Z,25.90
2019-06-15T16:45:47.431Z,25.90
2019-06-15T16:48:17.139Z,25.90
2019-06-15T16:50:47.162Z,25.90
2019-06-15T16:53:17.035Z,25.90
2019-06-15T16:55:46.942Z,25.90
2019-06-15T16:58:16.670Z,25.90
2019-06-15T17:00:47.663Z,25.70
2019-06-15T17:03:25.022Z,25.80
2019-06-15T17:05:48.776Z,25.70
2019-06-15T17:08:18.395Z,25.50
2019-06-15T17:10:48.006Z,25.40
2019-06-15T17:13:17.772Z,25.30
2019-06-15T17:15:47.545Z,25.20
2019-06-15T17:18:17.285Z,25.00
2019-06-15T17:20:53.071Z,25.00
2019-06-15T17:23:22.673Z,25.00
2019-06-15T17:25:52.333Z,24.90
2019-06-15T17:28:21.946Z,24.80
2019-06-15T17:30:51.654Z,24.70
2019-06-15T17:33:34.471Z,24.60
2019-06-15T17:36:02.207Z,24.60
2019-06-15T17:38:27.321Z,24.50
2019-06-15T17:40:57.244Z,24.30
2019-06-15T17:43:27.955Z,24.50
2019-06-15T17:45:57.532Z,24.30
2019-06-15T17:48:27.137Z,24.20
2019-06-15T17:50:57.373Z,24.20
2019-06-15T17:53:27.040Z,24.10
2019-06-15T17:55:56.635Z,24.10
2019-06-15T17:58:26.596Z,24.00
2019-06-15T18:00:57.563Z,23.90
2019-06-15T18:03:28.376Z,23.90
2019-06-15T18:05:58.400Z,23.80
2019-06-15T18:08:28.665Z,23.80
2019-06-15T18:10:58.268Z,23.90
2019-06-15T18:13:27.849Z,23.80
2019-06-15T18:15:58.585Z,23.80
2019-06-15T18:18:28.244Z,23.80
2019-06-15T18:20:57.889Z,23.70
2019-06-15T18:23:27.419Z,23.70
2019-06-15T18:25:57.015Z,23.60
2019-06-15T18:28:26.673Z,23.70
2019-06-15T18:30:56.202Z,23.60
2019-06-15T18:33:27.239Z,23.70
2019-06-15T18:35:57.100Z,23.60
2019-06-15T18:38:26.736Z,23.70
2019-06-15T18:40:56.461Z,23.70
2019-06-15T18:43:28.689Z,23.70
2019-06-15T18:45:58.272Z,23.70
2019-06-15T18:48:27.927Z,23.80
2019-06-15T18:50:59.870Z,23.80
2019-06-15T18:53:29.552Z,23.80
2019-06-15T18:55:59.141Z,23.70
2019-06-15T18:58:29.480Z,23.70
2019-06-15T19:00:59.184Z,23.60
2019-06-15T19:03:28.898Z,23.60
2019-06-15T19:05:58.543Z,23.60
2019-06-15T19:08:28.292Z,23.50
2019-06-15T19:10:57.886Z,23.40
2019-06-15T19:13:28.518Z,23.40
2019-06-15T19:15:58.127Z,23.40
2019-06-15T19:18:27.698Z,23.30
2019-06-15T19:20:57.375Z,23.30
2019-06-15T19:23:27.038Z,23.30
2019-06-15T19:25:57.370Z,23.20
2019-06-15T19:28:28.254Z,23.20
2019-06-15T19:30:57.849Z,23.20
2019-06-15T19:33:27.486Z,23.20
2019-06-15T19:35:58.773Z,23.10
2019-06-15T19:38:28.354Z,23.10
2019-06-15T19:40:57.930Z,23.00
2019-06-15T19:43:27.520Z,23.00
2019-06-15T19:45:57.114Z,23.00
2019-06-15T19:48:27.014Z,22.90
2019-06-15T19:50:57.844Z,22.90
2019-06-15T19:53:27.512Z,22.80
2019-06-15T19:55:57.586Z,22.80
2019-06-15T19:58:28.480Z,22.70
2019-06-15T20:00:58.117Z,22.70
2019-06-15T20:03:27.738Z,22.60
2019-06-15T20:05:57.526Z,22.60
2019-06-15T20:08:27.143Z,22.50
2019-06-15T20:10:57.804Z,22.50
2019-06-15T20:13:27.491Z,22.40
2019-06-15T20:15:57.402Z,22.40
2019-06-15T20:18:29.980Z,22.40
2019-06-15T20:20:58.406Z,22.30
2019-06-15T20:23:28.816Z,22.30
2019-06-15T20:25:58.712Z,22.30
2019-06-15T20:28:28.416Z,22.20
2019-06-15T20:30:58.094Z,22.20
2019-06-15T20:33:27.686Z,22.10
2019-06-15T20:35:57.617Z,22.10
2019-06-15T20:38:28.275Z,22.10
2019-06-15T20:40:57.905Z,22.00
2019-06-15T20:43:28.548Z,22.00
2019-06-15T20:45:58.134Z,21.90
2019-06-15T20:48:27.796Z,21.90
2019-06-15T20:50:57.398Z,21.90
2019-06-15T20:53:27.062Z,21.80
2019-06-15T20:55:57.142Z,21.80
2019-06-15T20:58:26.752Z,21.80
2019-06-15T21:00:56.487Z,21.70
2019-06-15T21:03:26.783Z,21.70
2019-06-15T21:05:57.430Z,21.60
2019-06-15T21:08:27.271Z,21.60
2019-06-15T21:10:56.850Z,21.50
2019-06-15T21:13:26.677Z,21.50
2019-06-15T21:15:56.832Z,21.50
2019-06-15T21:18:27.645Z,21.40
2019-06-15T21:20:57.296Z,21.40
2019-06-15T21:23:27.028Z,21.40
2019-06-15T21:25:57.258Z,21.30
2019-06-15T21:28:27.333Z,21.30
2019-06-15T21:30:57.004Z,21.30
2019-06-15T21:33:26.707Z,21.20
2019-06-15T21:35:57.264Z,21.20
2019-06-15T21:38:26.878Z,21.20
2019-06-15T21:40:57.142Z,21.10
2019-06-15T21:43:27.836Z,21.10
2019-06-15T21:45:57.351Z,21.00
2019-06-15T21:48:27.117Z,21.00
2019-06-15T21:50:59.326Z,21.00
2019-06-15T21:53:27.984Z,20.90
2019-06-15T21:55:58.821Z,20.90
2019-06-15T21:58:28.340Z,20.90
2019-06-15T22:01:17.448Z,20.90
2019-06-15T22:03:46.981Z,20.80
2019-06-15T22:06:16.988Z,20.80
2019-06-15T22:08:46.654Z,20.70
2019-06-15T22:11:16.242Z,20.70
2019-06-15T22:13:46.469Z,20.70
2019-06-15T22:16:17.302Z,20.70
2019-06-15T22:18:48.199Z,20.60
2019-06-15T22:21:17.948Z,20.60
2019-06-15T22:23:47.590Z,20.50
2019-06-15T22:26:17.363Z,20.50
2019-06-15T22:28:48.044Z,20.50
2019-06-15T22:31:17.713Z,20.50
2019-06-15T22:33:47.507Z,20.40
2019-06-15T22:36:24.683Z,20.40
2019-06-15T22:38:50.361Z,20.40
2019-06-15T22:41:20.088Z,20.40
2019-06-15T22:43:49.726Z,20.40
2019-06-15T22:46:19.342Z,20.30
2019-06-15T22:48:48.857Z,20.30
2019-06-15T22:51:18.495Z,20.20
2019-06-15T22:53:48.095Z,20.20
2019-06-15T22:56:17.768Z,20.20
2019-06-15T22:58:47.445Z,20.10
2019-06-15T23:01:17.173Z,20.10
2019-06-15T23:03:47.931Z,20.00
2019-06-15T23:06:17.600Z,20.00
2019-06-15T23:08:47.267Z,20.00
2019-06-15T23:11:17.540Z,20.00
2019-06-15T23:13:47.304Z,19.90
2019-06-15T23:16:16.907Z,19.90
2019-06-15T23:18:46.883Z,19.90
2019-06-15T23:21:17.625Z,19.80
2019-06-15T23:23:47.416Z,19.80
2019-06-15T23:26:17.009Z,19.80
2019-06-15T23:28:46.886Z,19.80
2019-06-15T23:31:16.844Z,19.80
2019-06-15T23:33:47.676Z,19.80
2019-06-15T23:36:21.908Z,19.70
2019-06-15T23:38:51.486Z,19.70
2019-06-15T23:41:21.314Z,19.70
2019-06-15T23:43:50.919Z,19.60
2019-06-15T23:46:20.510Z,19.60
2019-06-15T23:48:50.079Z,19.50
2019-06-15T23:51:19.735Z,19.50
2019-06-15T23:53:49.424Z,19.50
2019-06-15T23:56:19.026Z,19.40
2019-06-15T23:58:48.660Z,19.40
